sensor_id;sensor_type;location;lat;lon;timestamp;pressure;altitude;pressure_sealevel;temperature;humidity
70982;BME280;58640;51.320;9.456;2023-02-18T00:00:31;99852.56;;;8.64;100.00
70982;BME280;58640;51.320;9.456;2023-02-18T00:02:59;99857.06;;;8.64;100.00
70982;BME280;58640;51.320;9.456;2023-02-18T00:05:25;99861.91;;;8.78;100.00
70982;BME280;58640;51.320;9.456;2023-02-18T00:07:56;99860.59;;;9.00;100.00
70982;BME280;58640;51.320;9.456;2023-02-18T00:10:21;99852.69;;;8.98;100.00
70982;BME280;58640;51.320;9.456;2023-02-18T00:12:58;99851.66;;;9.17;97.25
70982;BME280;58640;51.320;9.456;2023-02-18T00:15:24;99853.50;;;8.99;98.30
70982;BME280;58640;51.320;9.456;2023-02-18T00:17:49;99858.81;;;8.90;98.23
70982;BME280;58640;51.320;9.456;2023-02-18T00:20:22;99848.75;;;9.10;97.42
70982;BME280;58640;51.320;9.456;2023-02-18T00:23:07;99850.00;;;8.98;97.77
70982;BME280;58640;51.320;9.456;2023-02-18T00:25:33;99844.63;;;9.16;95.87
70982;BME280;58640;51.320;9.456;2023-02-18T00:27:58;99843.22;;;9.12;96.25
70982;BME280;58640;51.320;9.456;2023-02-18T00:30:24;99839.91;;;9.18;95.87
70982;BME280;58640;51.320;9.456;2023-02-18T00:32:52;99830.59;;;9.04;96.26
70982;BME280;58640;51.320;9.456;2023-02-18T00:35:17;99828.44;;;9.08;96.42
70982;BME280;58640;51.320;9.456;2023-02-18T00:37:43;99822.59;;;9.12;96.74
70982;BME280;58640;51.320;9.456;2023-02-18T00:40:13;99814.19;;;9.07;96.58
70982;BME280;58640;51.320;9.456;2023-02-18T00:45:13;99817.00;;;8.80;98.67
70982;BME280;58640;51.320;9.456;2023-02-18T00:47:38;99820.59;;;8.88;98.39
70982;BME280;58640;51.320;9.456;2023-02-18T00:50:04;99808.94;;;8.80;98.21
70982;BME280;58640;51.320;9.456;2023-02-18T00:52:30;99810.69;;;8.89;97.77
70982;BME280;58640;51.320;9.456;2023-02-18T00:54:55;99798.25;;;8.62;99.30
70982;BME280;58640;51.320;9.456;2023-02-18T00:57:20;99806.06;;;8.56;100.00
70982;BME280;58640;51.320;9.456;2023-02-18T00:59:46;99812.19;;;8.66;99.08
70982;BME280;58640;51.320;9.456;2023-02-18T01:02:11;99799.44;;;8.68;98.91
70982;BME280;58640;51.320;9.456;2023-02-18T01:04:37;99810.09;;;8.95;96.23
70982;BME280;58640;51.320;9.456;2023-02-18T01:07:02;99823.31;;;9.14;94.99
70982;BME280;58640;51.320;9.456;2023-02-18T01:09:27;99819.75;;;8.88;96.13
70982;BME280;58640;51.320;9.456;2023-02-18T01:11:53;99817.50;;;9.01;95.96
70982;BME280;58640;51.320;9.456;2023-02-18T01:14:18;99819.34;;;9.01;95.58
70982;BME280;58640;51.320;9.456;2023-02-18T01:16:43;99841.59;;;8.75;97.49
70982;BME280;58640;51.320;9.456;2023-02-18T01:19:09;99843.19;;;8.86;96.97
70982;BME280;58640;51.320;9.456;2023-02-18T01:21:34;99821.03;;;8.84;97.52
70982;BME280;58640;51.320;9.456;2023-02-18T01:23:59;99824.97;;;8.72;98.02
70982;BME280;58640;51.320;9.456;2023-02-18T01:26:25;99814.47;;;8.78;98.02
70982;BME280;58640;51.320;9.456;2023-02-18T01:28:50;99811.16;;;8.84;97.11
70982;BME280;58640;51.320;9.456;2023-02-18T01:31:16;99805.25;;;8.81;97.61
70982;BME280;58640;51.320;9.456;2023-02-18T01:33:42;99806.03;;;8.73;97.81
70982;BME280;58640;51.320;9.456;2023-02-18T01:36:08;99815.25;;;8.53;99.70
70982;BME280;58640;51.320;9.456;2023-02-18T01:38:33;99806.91;;;8.56;99.74
70982;BME280;58640;51.320;9.456;2023-02-18T01:40:59;99818.34;;;8.84;97.65
70982;BME280;58640;51.320;9.456;2023-02-18T01:43:24;99809.56;;;8.92;97.21
70982;BME280;58640;51.320;9.456;2023-02-18T01:45:59;99805.50;;;8.70;99.47
70982;BME280;58640;51.320;9.456;2023-02-18T01:48:40;99810.88;;;8.70;99.79
70982;BME280;58640;51.320;9.456;2023-02-18T01:51:17;99809.50;;;8.66;100.00
70982;BME280;58640;51.320;9.456;2023-02-18T01:54:03;99810.25;;;8.58;100.00
70982;BME280;58640;51.320;9.456;2023-02-18T01:59:06;99807.53;;;8.50;100.00
70982;BME280;58640;51.320;9.456;2023-02-18T02:01:33;99798.63;;;8.50;100.00
70982;BME280;58640;51.320;9.456;2023-02-18T02:03:59;99792.97;;;8.53;100.00
70982;BME280;58640;51.320;9.456;2023-02-18T02:06:25;99800.00;;;8.54;100.00
70982;BME280;58640;51.320;9.456;2023-02-18T02:08:54;99796.84;;;8.58;100.00
70982;BME280;58640;51.320;9.456;2023-02-18T02:12:01;99788.38;;;8.63;100.00
70982;BME280;58640;51.320;9.456;2023-02-18T02:24:57;99782.69;;;8.66;100.00
70982;BME280;58640;51.320;9.456;2023-02-18T02:30:46;99774.28;;;8.61;100.00
70982;BME280;58640;51.320;9.456;2023-02-18T02:33:45;99776.94;;;8.61;100.00
70982;BME280;58640;51.320;9.456;2023-02-18T02:36:22;99770.56;;;8.62;100.00
70982;BME280;58640;51.320;9.456;2023-02-18T02:38:55;99766.59;;;8.66;100.00
70982;BME280;58640;51.320;9.456;2023-02-18T02:41:39;99771.50;;;8.70;100.00
70982;BME280;58640;51.320;9.456;2023-02-18T02:44:20;99772.63;;;8.68;100.00
70982;BME280;58640;51.320;9.456;2023-02-18T02:46:53;99764.59;;;8.68;100.00
70982;BME280;58640;51.320;9.456;2023-02-18T02:49:48;99760.06;;;8.68;100.00
70982;BME280;58640;51.320;9.456;2023-02-18T02:52:23;99764.66;;;8.76;100.00
70982;BME280;58640;51.320;9.456;2023-02-18T02:54:51;99752.25;;;8.75;100.00
70982;BME280;58640;51.320;9.456;2023-02-18T02:59:43;99752.25;;;8.75;100.00
70982;BME280;58640;51.320;9.456;2023-02-18T03:08:17;99748.56;;;8.76;100.00
70982;BME280;58640;51.320;9.456;2023-02-18T03:16:26;99754.94;;;8.75;100.00
70982;BME280;58640;51.320;9.456;2023-02-18T03:21:41;99744.38;;;8.73;100.00
70982;BME280;58640;51.320;9.456;2023-02-18T03:24:16;99735.38;;;8.82;100.00
70982;BME280;58640;51.320;9.456;2023-02-18T03:26:48;99727.31;;;8.82;100.00
70982;BME280;58640;51.320;9.456;2023-02-18T03:29:17;99716.75;;;8.81;100.00
70982;BME280;58640;51.320;9.456;2023-02-18T03:31:46;99721.75;;;8.76;100.00
70982;BME280;58640;51.320;9.456;2023-02-18T03:34:16;99707.66;;;8.74;100.00
70982;BME280;58640;51.320;9.456;2023-02-18T03:36:42;99701.13;;;8.76;100.00
70982;BME280;58640;51.320;9.456;2023-02-18T03:39:13;99691.56;;;8.74;100.00
70982;BME280;58640;51.320;9.456;2023-02-18T03:41:39;99692.25;;;8.76;100.00
70982;BME280;58640;51.320;9.456;2023-02-18T03:44:07;99691.41;;;8.75;100.00
70982;BME280;58640;51.320;9.456;2023-02-18T03:46:33;99692.06;;;8.69;100.00
70982;BME280;58640;51.320;9.456;2023-02-18T03:48:59;99687.50;;;8.70;100.00
70982;BME280;58640;51.320;9.456;2023-02-18T03:51:25;99685.16;;;8.67;100.00
70982;BME280;58640;51.320;9.456;2023-02-18T03:53:51;99682.31;;;8.68;100.00
70982;BME280;58640;51.320;9.456;2023-02-18T03:56:16;99678.00;;;8.75;100.00
70982;BME280;58640;51.320;9.456;2023-02-18T03:58:42;99667.34;;;8.83;100.00
70982;BME280;58640;51.320;9.456;2023-02-18T04:01:07;99669.16;;;8.83;100.00
70982;BME280;58640;51.320;9.456;2023-02-18T04:03:32;99657.59;;;8.82;100.00
70982;BME280;58640;51.320;9.456;2023-02-18T04:05:58;99650.06;;;8.86;100.00
70982;BME280;58640;51.320;9.456;2023-02-18T04:08:24;99652.22;;;8.82;100.00
70982;BME280;58640;51.320;9.456;2023-02-18T04:10:49;99658.09;;;8.86;100.00
70982;BME280;58640;51.320;9.456;2023-02-18T04:13:15;99653.38;;;8.80;100.00
70982;BME280;58640;51.320;9.456;2023-02-18T04:15:42;99640.66;;;8.82;100.00
70982;BME280;58640;51.320;9.456;2023-02-18T04:18:08;99646.03;;;8.82;100.00
70982;BME280;58640;51.320;9.456;2023-02-18T04:20:33;99649.13;;;9.03;100.00
70982;BME280;58640;51.320;9.456;2023-02-18T04:22:59;99649.94;;;8.96;100.00
70982;BME280;58640;51.320;9.456;2023-02-18T04:25:24;99655.09;;;8.89;100.00
70982;BME280;58640;51.320;9.456;2023-02-18T04:27:49;99661.53;;;8.96;100.00
70982;BME280;58640;51.320;9.456;2023-02-18T04:30:15;99656.97;;;8.88;100.00
70982;BME280;58640;51.320;9.456;2023-02-18T04:32:40;99647.50;;;9.10;100.00
70982;BME280;58640;51.320;9.456;2023-02-18T04:35:06;99653.00;;;9.01;100.00
70982;BME280;58640;51.320;9.456;2023-02-18T04:37:31;99651.81;;;9.03;100.00
70982;BME280;58640;51.320;9.456;2023-02-18T04:39:56;99646.94;;;8.99;100.00
70982;BME280;58640;51.320;9.456;2023-02-18T04:42:22;99642.78;;;9.04;100.00
70982;BME280;58640;51.320;9.456;2023-02-18T04:44:47;99647.66;;;9.09;100.00
70982;BME280;58640;51.320;9.456;2023-02-18T04:47:13;99639.63;;;9.09;100.00
70982;BME280;58640;51.320;9.456;2023-02-18T04:49:38;99650.91;;;9.20;100.00
70982;BME280;58640;51.320;9.456;2023-02-18T04:52:04;99639.94;;;9.06;100.00
70982;BME280;58640;51.320;9.456;2023-02-18T04:54:29;99632.56;;;9.08;100.00
70982;BME280;58640;51.320;9.456;2023-02-18T04:56:55;99623.16;;;9.04;100.00
70982;BME280;58640;51.320;9.456;2023-02-18T04:59:20;99629.91;;;9.08;100.00
70982;BME280;58640;51.320;9.456;2023-02-18T05:01:45;99622.81;;;9.07;100.00
70982;BME280;58640;51.320;9.456;2023-02-18T05:04:11;99625.53;;;9.15;100.00
70982;BME280;58640;51.320;9.456;2023-02-18T05:06:36;99616.97;;;9.11;100.00
70982;BME280;58640;51.320;9.456;2023-02-18T05:09:04;99620.84;;;9.17;100.00
70982;BME280;58640;51.320;9.456;2023-02-18T05:11:30;99616.63;;;9.06;100.00
70982;BME280;58640;51.320;9.456;2023-02-18T05:13:55;99612.63;;;9.10;100.00
70982;BME280;58640;51.320;9.456;2023-02-18T05:16:20;99613.16;;;9.22;100.00
70982;BME280;58640;51.320;9.456;2023-02-18T05:18:46;99606.13;;;9.29;100.00
70982;BME280;58640;51.320;9.456;2023-02-18T05:21:11;99601.75;;;9.20;100.00
70982;BME280;58640;51.320;9.456;2023-02-18T05:23:36;99595.84;;;9.16;100.00
70982;BME280;58640;51.320;9.456;2023-02-18T05:26:02;99597.06;;;9.22;100.00
70982;BME280;58640;51.320;9.456;2023-02-18T05:28:28;99598.06;;;9.21;100.00
70982;BME280;58640;51.320;9.456;2023-02-18T05:30:53;99596.63;;;9.42;100.00
70982;BME280;58640;51.320;9.456;2023-02-18T05:33:19;99579.78;;;9.24;100.00
70982;BME280;58640;51.320;9.456;2023-02-18T05:35:44;99585.84;;;9.26;100.00
70982;BME280;58640;51.320;9.456;2023-02-18T05:38:09;99576.44;;;9.22;100.00
70982;BME280;58640;51.320;9.456;2023-02-18T05:40:35;99582.47;;;9.24;100.00
70982;BME280;58640;51.320;9.456;2023-02-18T05:43:01;99573.63;;;9.32;100.00
70982;BME280;58640;51.320;9.456;2023-02-18T05:45:26;99570.63;;;9.43;100.00
70982;BME280;58640;51.320;9.456;2023-02-18T05:47:51;99569.59;;;9.36;100.00
70982;BME280;58640;51.320;9.456;2023-02-18T05:50:17;99564.53;;;9.33;100.00
70982;BME280;58640;51.320;9.456;2023-02-18T05:52:42;99568.53;;;9.29;100.00
70982;BME280;58640;51.320;9.456;2023-02-18T05:55:08;99577.44;;;9.21;100.00
70982;BME280;58640;51.320;9.456;2023-02-18T05:57:33;99563.50;;;9.26;100.00
70982;BME280;58640;51.320;9.456;2023-02-18T05:59:58;99565.38;;;9.25;100.00
70982;BME280;58640;51.320;9.456;2023-02-18T06:02:24;99563.03;;;9.38;100.00
70982;BME280;58640;51.320;9.456;2023-02-18T06:04:49;99552.44;;;9.29;100.00
70982;BME280;58640;51.320;9.456;2023-02-18T06:07:14;99548.94;;;9.28;100.00
70982;BME280;58640;51.320;9.456;2023-02-18T06:09:40;99547.44;;;9.50;100.00
70982;BME280;58640;51.320;9.456;2023-02-18T06:12:05;99549.31;;;9.41;100.00
70982;BME280;58640;51.320;9.456;2023-02-18T06:14:31;99547.25;;;9.35;100.00
70982;BME280;58640;51.320;9.456;2023-02-18T06:16:57;99537.03;;;9.39;100.00
70982;BME280;58640;51.320;9.456;2023-02-18T06:19:22;99548.75;;;9.22;100.00
70982;BME280;58640;51.320;9.456;2023-02-18T06:21:47;99536.50;;;9.27;100.00
70982;BME280;58640;51.320;9.456;2023-02-18T06:24:13;99539.69;;;9.23;100.00
70982;BME280;58640;51.320;9.456;2023-02-18T06:26:38;99540.22;;;9.34;100.00
70982;BME280;58640;51.320;9.456;2023-02-18T06:29:04;99529.81;;;9.31;100.00
70982;BME280;58640;51.320;9.456;2023-02-18T06:31:29;99537.50;;;9.18;100.00
70982;BME280;58640;51.320;9.456;2023-02-18T06:33:54;99540.56;;;9.39;100.00
70982;BME280;58640;51.320;9.456;2023-02-18T06:36:20;99530.13;;;9.20;100.00
70982;BME280;58640;51.320;9.456;2023-02-18T06:38:45;99522.78;;;9.22;100.00
70982;BME280;58640;51.320;9.456;2023-02-18T06:41:11;99535.34;;;9.22;100.00
70982;BME280;58640;51.320;9.456;2023-02-18T06:44:12;99527.47;;;9.28;100.00
70982;BME280;58640;51.320;9.456;2023-02-18T06:47:14;99525.59;;;9.21;100.00
70982;BME280;58640;51.320;9.456;2023-02-18T06:50:15;99523.25;;;9.18;100.00
70982;BME280;58640;51.320;9.456;2023-02-18T06:55:25;99514.72;;;9.22;100.00
70982;BME280;58640;51.320;9.456;2023-02-18T06:58:10;99504.28;;;9.19;100.00
70982;BME280;58640;51.320;9.456;2023-02-18T07:03:51;99496.22;;;9.19;100.00
70982;BME280;58640;51.320;9.456;2023-02-18T07:07:15;99495.94;;;9.22;100.00
70982;BME280;58640;51.320;9.456;2023-02-18T07:10:11;99488.00;;;9.21;100.00
70982;BME280;58640;51.320;9.456;2023-02-18T07:12:37;99485.53;;;9.35;100.00
70982;BME280;58640;51.320;9.456;2023-02-18T07:15:13;99498.78;;;9.37;100.00
70982;BME280;58640;51.320;9.456;2023-02-18T07:17:41;99492.41;;;9.22;100.00
70982;BME280;58640;51.320;9.456;2023-02-18T07:20:11;99484.34;;;9.30;100.00
70982;BME280;58640;51.320;9.456;2023-02-18T07:22:39;99491.06;;;9.34;100.00
70982;BME280;58640;51.320;9.456;2023-02-18T07:40:15;99483.34;;;9.63;100.00
70982;BME280;58640;51.320;9.456;2023-02-18T07:49:14;99476.78;;;9.65;100.00
70982;BME280;58640;51.320;9.456;2023-02-18T07:59:14;99474.09;;;9.73;100.00
70982;BME280;58640;51.320;9.456;2023-02-18T08:01:40;99478.16;;;9.69;100.00
70982;BME280;58640;51.320;9.456;2023-02-18T08:04:06;99471.59;;;9.64;100.00
70982;BME280;58640;51.320;9.456;2023-02-18T08:06:41;99466.22;;;9.64;100.00
70982;BME280;58640;51.320;9.456;2023-02-18T08:09:07;99461.66;;;9.96;100.00
70982;BME280;58640;51.320;9.456;2023-02-18T08:11:33;99459.28;;;10.17;100.00
70982;BME280;58640;51.320;9.456;2023-02-18T08:13:59;99463.31;;;10.13;100.00
70982;BME280;58640;51.320;9.456;2023-02-18T08:16:24;99448.81;;;10.69;100.00
70982;BME280;58640;51.320;9.456;2023-02-18T08:18:50;99461.06;;;10.33;100.00
70982;BME280;58640;51.320;9.456;2023-02-18T08:21:17;99459.13;;;10.11;100.00
70982;BME280;58640;51.320;9.456;2023-02-18T08:23:43;99454.25;;;10.06;100.00
70982;BME280;58640;51.320;9.456;2023-02-18T08:26:09;99461.66;;;9.96;100.00
70982;BME280;58640;51.320;9.456;2023-02-18T08:28:34;99457.97;;;9.81;100.00
70982;BME280;58640;51.320;9.456;2023-02-18T08:31:00;99459.84;;;9.81;100.00
70982;BME280;58640;51.320;9.456;2023-02-18T08:33:25;99457.84;;;9.67;100.00
70982;BME280;58640;51.320;9.456;2023-02-18T08:35:52;99458.31;;;9.78;100.00
70982;BME280;58640;51.320;9.456;2023-02-18T08:38:18;99446.56;;;9.87;100.00
70982;BME280;58640;51.320;9.456;2023-02-18T08:40:44;99463.16;;;9.91;100.00
70982;BME280;58640;51.320;9.456;2023-02-18T08:43:10;99460.13;;;10.02;100.00
70982;BME280;58640;51.320;9.456;2023-02-18T08:45:36;99455.09;;;9.99;100.00
70982;BME280;58640;51.320;9.456;2023-02-18T08:48:03;99445.03;;;9.93;100.00
70982;BME280;58640;51.320;9.456;2023-02-18T08:50:28;99458.47;;;10.09;100.00
70982;BME280;58640;51.320;9.456;2023-02-18T08:52:54;99458.94;;;10.04;100.00
70982;BME280;58640;51.320;9.456;2023-02-18T08:55:20;99451.75;;;9.97;100.00
70982;BME280;58640;51.320;9.456;2023-02-18T08:57:47;99457.66;;;9.92;100.00
70982;BME280;58640;51.320;9.456;2023-02-18T09:00:14;99460.13;;;10.02;100.00
70982;BME280;58640;51.320;9.456;2023-02-18T09:02:39;99452.22;;;10.08;100.00
70982;BME280;58640;51.320;9.456;2023-02-18T09:05:05;99457.78;;;9.99;100.00
70982;BME280;58640;51.320;9.456;2023-02-18T09:07:30;99460.16;;;10.10;100.00
70982;BME280;58640;51.320;9.456;2023-02-18T09:09:55;99456.28;;;9.96;100.00
70982;BME280;58640;51.320;9.456;2023-02-18T09:12:21;99449.88;;;10.05;100.00
70982;BME280;58640;51.320;9.456;2023-02-18T09:14:47;99451.91;;;10.03;100.00
70982;BME280;58640;51.320;9.456;2023-02-18T09:17:13;99451.75;;;10.13;100.00
70982;BME280;58640;51.320;9.456;2023-02-18T09:19:38;99451.88;;;10.27;100.00
70982;BME280;58640;51.320;9.456;2023-02-18T09:22:03;99451.41;;;10.16;100.00
70982;BME280;58640;51.320;9.456;2023-02-18T09:24:29;99453.72;;;10.27;100.00
70982;BME280;58640;51.320;9.456;2023-02-18T09:26:54;99449.69;;;10.15;100.00
70982;BME280;58640;51.320;9.456;2023-02-18T09:29:20;99442.03;;;10.43;99.68
70982;BME280;58640;51.320;9.456;2023-02-18T09:31:45;99441.72;;;10.38;98.69
70982;BME280;58640;51.320;9.456;2023-02-18T09:34:11;99434.41;;;10.23;99.17
70982;BME280;58640;51.320;9.456;2023-02-18T09:36:37;99433.38;;;10.24;99.20
70982;BME280;58640;51.320;9.456;2023-02-18T09:39:04;99432.84;;;10.37;97.47
70982;BME280;58640;51.320;9.456;2023-02-18T09:41:44;99437.34;;;10.45;96.62
70982;BME280;58640;51.320;9.456;2023-02-18T09:44:24;99425.84;;;10.59;95.23
70982;BME280;58640;51.320;9.456;2023-02-18T09:46:58;99430.38;;;10.58;94.17
70982;BME280;58640;51.320;9.456;2023-02-18T09:49:27;99438.97;;;10.84;92.39
70982;BME280;58640;51.320;9.456;2023-02-18T09:51:54;99431.13;;;10.75;92.33
70982;BME280;58640;51.320;9.456;2023-02-18T09:54:20;99424.81;;;10.90;89.83
70982;BME280;58640;51.320;9.456;2023-02-18T09:56:46;99440.66;;;11.08;89.14
70982;BME280;58640;51.320;9.456;2023-02-18T09:59:16;99429.97;;;10.69;89.38
70982;BME280;58640;51.320;9.456;2023-02-18T10:01:43;99439.41;;;10.65;91.57
70982;BME280;58640;51.320;9.456;2023-02-18T10:04:18;99441.47;;;10.55;93.22
70982;BME280;58640;51.320;9.456;2023-02-18T10:06:46;99448.78;;;10.47;93.29
70982;BME280;58640;51.320;9.456;2023-02-18T10:11:53;99458.38;;;10.33;95.16
70982;BME280;58640;51.320;9.456;2023-02-18T10:14:19;99429.09;;;10.46;93.36
70982;BME280;58640;51.320;9.456;2023-02-18T10:16:45;99437.03;;;10.70;89.57
70982;BME280;58640;51.320;9.456;2023-02-18T10:19:30;99420.81;;;10.86;87.94
70982;BME280;58640;51.320;9.456;2023-02-18T10:21:58;99441.94;;;10.97;86.24
70982;BME280;58640;51.320;9.456;2023-02-18T10:24:47;99421.53;;;11.03;84.23
70982;BME280;58640;51.320;9.456;2023-02-18T10:27:24;99425.44;;;11.23;83.25
70982;BME280;58640;51.320;9.456;2023-02-18T10:29:51;99413.41;;;11.48;81.65
70982;BME280;58640;51.320;9.456;2023-02-18T10:32:26;99411.47;;;11.64;80.06
70982;BME280;58640;51.320;9.456;2023-02-18T10:43:41;99403.59;;;12.21;75.16
70982;BME280;58640;51.320;9.456;2023-02-18T10:50:16;99401.22;;;11.74;76.64
70982;BME280;58640;51.320;9.456;2023-02-18T10:52:15;99417.25;;;12.20;75.58
70982;BME280;58640;51.320;9.456;2023-02-18T10:57:25;99400.78;;;11.86;74.47
70982;BME280;58640;51.320;9.456;2023-02-18T11:02:39;99387.41;;;11.63;75.59
70982;BME280;58640;51.320;9.456;2023-02-18T11:05:26;99403.63;;;11.32;78.01
70982;BME280;58640;51.320;9.456;2023-02-18T11:07:53;99402.72;;;11.40;78.61
70982;BME280;58640;51.320;9.456;2023-02-18T11:10:29;99412.13;;;11.44;79.18
70982;BME280;58640;51.320;9.456;2023-02-18T11:13:00;99427.25;;;11.00;79.58
70982;BME280;58640;51.320;9.456;2023-02-18T11:15:27;99406.28;;;11.18;78.74
70982;BME280;58640;51.320;9.456;2023-02-18T11:18:10;99405.44;;;10.95;78.35
70982;BME280;58640;51.320;9.456;2023-02-18T11:20:37;99410.94;;;11.01;79.40
70982;BME280;58640;51.320;9.456;2023-02-18T11:25:38;99405.19;;;11.04;78.49
70982;BME280;58640;51.320;9.456;2023-02-18T11:28:21;99428.56;;;10.81;79.02
70982;BME280;58640;51.320;9.456;2023-02-18T11:30:53;99422.25;;;10.66;77.92
70982;BME280;58640;51.320;9.456;2023-02-18T11:35:55;99418.66;;;10.51;78.20
70982;BME280;58640;51.320;9.456;2023-02-18T11:38:33;99419.81;;;10.49;78.89
70982;BME280;58640;51.320;9.456;2023-02-18T11:41:08;99421.25;;;10.37;80.08
70982;BME280;58640;51.320;9.456;2023-02-18T11:43:34;99422.81;;;10.54;79.21
70982;BME280;58640;51.320;9.456;2023-02-18T11:46:15;99414.09;;;10.52;79.48
70982;BME280;58640;51.320;9.456;2023-02-18T11:48:41;99410.16;;;10.31;80.14
70982;BME280;58640;51.320;9.456;2023-02-18T11:54:40;99425.81;;;10.28;81.55
70982;BME280;58640;51.320;9.456;2023-02-18T11:56:40;99415.03;;;10.28;81.73
70982;BME280;58640;51.320;9.456;2023-02-18T11:59:18;99415.41;;;10.25;81.81
70982;BME280;58640;51.320;9.456;2023-02-18T12:01:50;99423.63;;;10.62;80.87
70982;BME280;58640;51.320;9.456;2023-02-18T12:04:30;99416.66;;;10.45;80.69
70982;BME280;58640;51.320;9.456;2023-02-18T12:09:37;99411.44;;;10.74;78.85
70982;BME280;58640;51.320;9.456;2023-02-18T12:12:30;99417.06;;;10.65;79.35
70982;BME280;58640;51.320;9.456;2023-02-18T12:14:58;99401.34;;;10.46;80.72
70982;BME280;58640;51.320;9.456;2023-02-18T12:26:28;99423.75;;;10.38;81.04
70982;BME280;58640;51.320;9.456;2023-02-18T12:29:08;99413.13;;;10.45;80.11
70982;BME280;58640;51.320;9.456;2023-02-18T12:37:31;99410.97;;;10.40;80.40
70982;BME280;58640;51.320;9.456;2023-02-18T12:42:54;99408.78;;;10.35;80.95
70982;BME280;58640;51.320;9.456;2023-02-18T12:51:41;99418.06;;;10.33;81.60
70982;BME280;58640;51.320;9.456;2023-02-18T12:57:16;99402.63;;;10.27;82.96
70982;BME280;58640;51.320;9.456;2023-02-18T13:11:13;99399.56;;;10.38;82.33
70982;BME280;58640;51.320;9.456;2023-02-18T13:13:52;99397.34;;;10.42;81.83
70982;BME280;58640;51.320;9.456;2023-02-18T13:16:22;99401.25;;;10.31;83.37
70982;BME280;58640;51.320;9.456;2023-02-18T13:19:42;99411.91;;;10.16;84.09
70982;BME280;58640;51.320;9.456;2023-02-18T13:21:53;99411.03;;;10.24;85.81
70982;BME280;58640;51.320;9.456;2023-02-18T13:26:50;99404.31;;;10.20;86.69
70982;BME280;58640;51.320;9.456;2023-02-18T13:29:33;99404.81;;;10.23;85.68
70982;BME280;58640;51.320;9.456;2023-02-18T13:32:08;99412.69;;;10.64;85.57
70982;BME280;58640;51.320;9.456;2023-02-18T13:34:49;99397.22;;;10.35;85.79
70982;BME280;58640;51.320;9.456;2023-02-18T13:37:32;99400.63;;;10.29;87.29
70982;BME280;58640;51.320;9.456;2023-02-18T13:40:00;99408.56;;;10.06;89.62
70982;BME280;58640;51.320;9.456;2023-02-18T13:42:34;99409.88;;;10.18;88.44
70982;BME280;58640;51.320;9.456;2023-02-18T13:45:21;99417.13;;;10.49;85.18
70982;BME280;58640;51.320;9.456;2023-02-18T13:47:47;99412.84;;;10.31;84.26
70982;BME280;58640;51.320;9.456;2023-02-18T13:50:25;99419.72;;;10.34;85.09
70982;BME280;58640;51.320;9.456;2023-02-18T13:58:13;99421.81;;;10.24;86.12
70982;BME280;58640;51.320;9.456;2023-02-18T14:00:45;99423.63;;;10.23;85.95
70982;BME280;58640;51.320;9.456;2023-02-18T14:05:55;99418.69;;;10.43;85.22
70982;BME280;58640;51.320;9.456;2023-02-18T14:08:35;99421.69;;;10.48;85.88
70982;BME280;58640;51.320;9.456;2023-02-18T14:13:54;99428.03;;;10.08;89.62
70982;BME280;58640;51.320;9.456;2023-02-18T14:16:20;99428.50;;;10.28;88.48
70982;BME280;58640;51.320;9.456;2023-02-18T14:33:38;99417.94;;;10.18;88.19
70982;BME280;58640;51.320;9.456;2023-02-18T14:38:49;99420.44;;;10.28;86.82
70982;BME280;58640;51.320;9.456;2023-02-18T14:41:31;99409.81;;;10.34;85.91
70982;BME280;58640;51.320;9.456;2023-02-18T14:47:24;99398.38;;;10.32;86.02
70982;BME280;58640;51.320;9.456;2023-02-18T14:49:54;99401.06;;;10.32;84.80
70982;BME280;58640;51.320;9.456;2023-02-18T14:54:51;99415.63;;;10.54;83.04
70982;BME280;58640;51.320;9.456;2023-02-18T14:57:19;99396.91;;;10.61;83.31
70982;BME280;58640;51.320;9.456;2023-02-18T14:59:48;99415.47;;;10.78;81.84
70982;BME280;58640;51.320;9.456;2023-02-18T15:02:22;99410.19;;;10.62;83.29
70982;BME280;58640;51.320;9.456;2023-02-18T15:04:49;99414.75;;;10.54;83.88
70982;BME280;58640;51.320;9.456;2023-02-18T15:07:17;99408.72;;;10.52;84.45
70982;BME280;58640;51.320;9.456;2023-02-18T15:09:45;99412.44;;;10.51;83.32
70982;BME280;58640;51.320;9.456;2023-02-18T15:12:15;99417.44;;;10.54;82.72
70982;BME280;58640;51.320;9.456;2023-02-18T15:14:42;99415.69;;;10.69;82.60
70982;BME280;58640;51.320;9.456;2023-02-18T15:17:17;99416.38;;;10.63;83.52
70982;BME280;58640;51.320;9.456;2023-02-18T15:19:50;99426.00;;;10.57;84.99
70982;BME280;58640;51.320;9.456;2023-02-18T15:22:20;99424.25;;;10.72;85.35
70982;BME280;58640;51.320;9.456;2023-02-18T15:24:48;99425.34;;;10.55;86.55
70982;BME280;58640;51.320;9.456;2023-02-18T15:27:31;99433.81;;;10.44;87.98
70982;BME280;58640;51.320;9.456;2023-02-18T15:32:27;99433.00;;;10.35;89.86
70982;BME280;58640;51.320;9.456;2023-02-18T15:34:57;99436.22;;;10.23;91.47
70982;BME280;58640;51.320;9.456;2023-02-18T15:37:22;99438.69;;;10.41;89.98
70982;BME280;58640;51.320;9.456;2023-02-18T15:39:48;99441.25;;;10.26;91.83
70982;BME280;58640;51.320;9.456;2023-02-18T15:42:30;99436.91;;;10.25;92.00
70982;BME280;58640;51.320;9.456;2023-02-18T15:45:01;99439.63;;;10.01;93.41
70982;BME280;58640;51.320;9.456;2023-02-18T15:47:27;99442.16;;;10.10;93.09
70982;BME280;58640;51.320;9.456;2023-02-18T15:49:56;99435.78;;;10.03;93.67
70982;BME280;58640;51.320;9.456;2023-02-18T15:52:25;99443.66;;;10.05;93.95
70982;BME280;58640;51.320;9.456;2023-02-18T15:54:51;99447.69;;;10.01;95.19
70982;BME280;58640;51.320;9.456;2023-02-18T15:57:19;99441.97;;;10.04;94.81
70982;BME280;58640;51.320;9.456;2023-02-18T16:00:05;99443.47;;;10.22;93.11
70982;BME280;58640;51.320;9.456;2023-02-18T16:02:32;99458.28;;;10.10;93.59
70982;BME280;58640;51.320;9.456;2023-02-18T16:04:59;99462.97;;;10.00;94.75
70982;BME280;58640;51.320;9.456;2023-02-18T16:07:28;99464.50;;;10.11;93.84
70982;BME280;58640;51.320;9.456;2023-02-18T16:12:53;99455.72;;;10.25;92.96
70982;BME280;58640;51.320;9.456;2023-02-18T16:15:25;99451.38;;;10.24;91.74